Time;durP1;ratioP1;P1;durP2;ratioP2;P2;SDS_P1;SDS_P2;PMS_P1;PMS_P2;Temp;Humidity;BMP_temperature;BMP_pressure;BME280_temperature;BME280_humidity;BME280_pressure;Samples;Min_cycle;Max_cycle;Signal;HPM_P1;HPM_P2
2023/10/16 00:01:03;;;;;;;10.97;10.07;;;3.60;99.90;;;;;;4921062;29;20239;-77
2023/10/16 00:03:30;;;;;;;10.83;9.87;;;3.60;99.90;;;;;;4922111;29;20369;-77
2023/10/16 00:05:57;;;;;;;10.50;9.60;;;3.50;99.90;;;;;;4929103;29;20633;-76
2023/10/16 00:08:24;;;;;;;10.80;9.80;;;3.50;99.90;;;;;;4903670;29;20224;-77
2023/10/16 00:10:58;;;;;;;10.80;9.90;;;3.40;99.90;;;;;;4905436;29;20205;-77
2023/10/16 00:13:29;;;;;;;10.40;9.50;;;3.50;99.90;;;;;;4901163;29;20201;-77
2023/10/16 00:15:57;;;;;;;10.00;9.20;;;3.40;99.90;;;;;;4903636;29;20215;-77
2023/10/16 00:18:25;;;;;;;11.13;9.63;;;3.40;99.90;;;;;;4902606;29;20220;-77
2023/10/16 00:20:52;;;;;;;9.80;9.00;;;3.30;99.90;;;;;;4903370;29;20223;-77
2023/10/16 00:23:24;;;;;;;10.60;9.70;;;3.30;99.90;;;;;;4919727;29;20234;-76
2023/10/16 00:25:51;;;;;;;9.90;9.20;;;3.20;99.90;;;;;;4929711;28;20301;-77
2023/10/16 00:28:21;;;;;;;9.40;8.40;;;3.20;99.90;;;;;;4903548;29;20461;-77
2023/10/16 00:30:49;;;;;;;9.33;8.53;;;3.10;99.90;;;;;;4900323;29;20196;-77
2023/10/16 00:33:16;;;;;;;10.17;9.27;;;3.10;99.90;;;;;;4902626;29;20205;-77
2023/10/16 00:35:45;;;;;;;10.63;9.70;;;3.00;99.90;;;;;;4900913;29;20461;-76
2023/10/16 00:38:13;;;;;;;10.13;9.23;;;3.00;99.90;;;;;;4903602;29;20589;-77
2023/10/16 00:40:44;;;;;;;10.00;9.10;;;3.00;99.90;;;;;;4917620;29;20204;-77
2023/10/16 00:43:17;;;;;;;10.10;9.30;;;2.90;99.90;;;;;;4911427;29;20612;-76
2023/10/16 00:45:48;;;;;;;10.53;9.63;;;3.00;99.90;;;;;;4922897;29;20203;-77
2023/10/16 00:48:17;;;;;;;10.50;9.50;;;3.00;99.90;;;;;;4897879;29;20463;-77
2023/10/16 00:50:48;;;;;;;10.37;9.57;;;3.00;99.90;;;;;;4925440;29;20515;-77
2023/10/16 00:53:16;;;;;;;9.60;8.90;;;3.00;99.90;;;;;;4929936;29;20208;-77
2023/10/16 00:55:43;;;;;;;9.13;8.53;;;3.00;99.90;;;;;;4929713;29;20456;-77
2023/10/16 00:58:10;;;;;;;9.17;8.53;;;3.00;99.90;;;;;;4900818;29;20459;-77
2023/10/16 01:00:45;;;;;;;9.70;8.80;;;2.90;99.90;;;;;;4924835;29;20923;-77
2023/10/16 01:03:12;;;;;;;9.30;8.60;;;2.90;99.90;;;;;;4926639;29;20543;-76
2023/10/16 01:05:42;;;;;;;9.43;8.70;;;2.90;99.90;;;;;;4918974;29;20990;-76
2023/10/16 01:08:12;;;;;;;10.50;9.57;;;2.90;99.90;;;;;;4918786;29;20224;-76
2023/10/16 01:10:40;;;;;;;10.17;9.37;;;2.90;99.90;;;;;;4912813;29;20247;-77
2023/10/16 01:13:12;;;;;;;9.70;8.90;;;2.80;99.90;;;;;;4920882;29;21063;-77
2023/10/16 01:15:43;;;;;;;9.93;9.13;;;2.90;99.90;;;;;;4911893;29;20613;-77
2023/10/16 01:18:13;;;;;;;10.27;9.40;;;2.80;99.90;;;;;;4944632;23;20488;-75
2023/10/16 01:20:46;;;;;;;9.30;8.57;;;2.80;99.90;;;;;;4984145;28;20441;-76
2023/10/16 01:23:18;;;;;;;9.87;9.07;;;2.80;99.90;;;;;;4976597;28;20511;-75
2023/10/16 01:25:47;;;;;;;9.83;9.10;;;2.70;99.90;;;;;;4982118;28;20443;-75
2023/10/16 01:28:15;;;;;;;10.53;9.63;;;2.70;99.90;;;;;;4970233;28;20226;-74
2023/10/16 01:30:43;;;;;;;10.00;9.30;;;2.80;99.90;;;;;;4955864;28;20269;-75
2023/10/16 01:33:10;;;;;;;11.20;10.30;;;2.70;99.90;;;;;;4959946;28;20217;-74
2023/10/16 01:35:37;;;;;;;10.33;9.53;;;2.70;99.90;;;;;;4960179;28;20539;-74
2023/10/16 01:38:14;;;;;;;10.00;9.30;;;2.70;99.90;;;;;;4970365;28;20438;-75
2023/10/16 01:40:50;;;;;;;11.07;10.00;;;2.60;99.90;;;;;;4960689;28;20476;-75
2023/10/16 01:43:23;;;;;;;10.40;9.60;;;2.60;99.90;;;;;;4958524;28;20992;-75
2023/10/16 01:45:50;;;;;;;10.70;9.83;;;2.60;99.90;;;;;;4959529;28;20297;-75
2023/10/16 01:48:20;;;;;;;10.77;9.70;;;2.60;99.90;;;;;;4960354;28;20470;-76
2023/10/16 01:50:49;;;;;;;10.10;9.40;;;2.50;99.90;;;;;;4961590;28;20478;-75
2023/10/16 01:53:20;;;;;;;9.60;8.90;;;2.50;99.90;;;;;;4966266;28;20504;-75
2023/10/16 01:55:54;;;;;;;9.63;8.93;;;2.40;99.90;;;;;;4965741;28;20452;-75
2023/10/16 01:58:22;;;;;;;10.43;9.63;;;2.30;99.90;;;;;;4981900;28;20466;-75
2023/10/16 02:00:51;;;;;;;9.93;9.10;;;2.30;99.90;;;;;;4961877;28;20226;-75
2023/10/16 02:03:18;;;;;;;9.97;9.23;;;2.30;99.90;;;;;;4962110;28;20526;-74
2023/10/16 02:05:46;;;;;;;9.40;8.80;;;2.30;99.90;;;;;;4962961;28;20197;-75
2023/10/16 02:08:14;;;;;;;10.60;9.60;;;2.30;99.90;;;;;;4968180;28;20468;-74
2023/10/16 02:10:42;;;;;;;11.33;10.30;;;2.40;99.90;;;;;;4962369;28;20537;-75
2023/10/16 02:13:12;;;;;;;11.17;10.17;;;2.30;99.90;;;;;;4966006;28;20446;-75
2023/10/16 02:15:39;;;;;;;10.90;9.97;;;2.30;99.90;;;;;;4965696;28;20446;-75
2023/10/16 02:18:09;;;;;;;10.37;9.47;;;2.40;99.90;;;;;;4961797;28;20477;-75
2023/10/16 02:20:38;;;;;;;10.70;9.80;;;2.40;99.90;;;;;;4962358;28;21023;-75
2023/10/16 02:23:07;;;;;;;10.80;9.90;;;2.30;99.90;;;;;;4963364;28;20449;-75
2023/10/16 02:25:35;;;;;;;9.70;9.00;;;2.40;99.90;;;;;;4962058;28;20889;-75
2023/10/16 02:28:03;;;;;;;9.97;9.27;;;2.30;99.90;;;;;;4960924;28;20444;-74
2023/10/16 02:30:36;;;;;;;10.27;9.37;;;2.30;99.90;;;;;;4963779;28;20498;-75
2023/10/16 02:33:18;;;;;;;10.20;9.40;;;2.30;99.90;;;;;;4966414;28;20481;-75
2023/10/16 02:35:50;;;;;;;10.60;9.80;;;2.30;99.90;;;;;;4962083;28;20992;-75
2023/10/16 02:38:23;;;;;;;10.23;9.43;;;2.30;99.90;;;;;;4962887;28;20466;-75
2023/10/16 02:40:53;;;;;;;10.17;9.33;;;2.30;99.90;;;;;;4965310;28;20575;-78
2023/10/16 02:43:22;;;;;;;10.13;9.40;;;2.20;99.90;;;;;;4964728;28;20446;-74
2023/10/16 02:45:52;;;;;;;11.43;10.53;;;2.20;99.90;;;;;;4964420;28;20436;-74
2023/10/16 02:48:20;;;;;;;10.10;9.40;;;2.20;99.90;;;;;;4967583;28;20480;-75
2023/10/16 02:50:54;;;;;;;10.80;9.90;;;2.20;99.90;;;;;;4964490;28;20221;-75
2023/10/16 02:53:22;;;;;;;10.50;9.50;;;2.10;99.90;;;;;;4967105;28;20483;-76
2023/10/16 02:55:58;;;;;;;10.77;9.87;;;2.10;99.90;;;;;;4963966;28;20457;-75
2023/10/16 02:58:26;;;;;;;11.13;10.37;;;2.10;99.90;;;;;;4965475;28;20221;-75
2023/10/16 03:00:56;;;;;;;11.63;10.73;;;2.00;99.90;;;;;;4972583;28;20575;-75
2023/10/16 03:03:24;;;;;;;10.73;10.03;;;2.00;99.90;;;;;;4968766;28;20446;-75
2023/10/16 03:05:51;;;;;;;10.97;10.17;;;2.00;99.90;;;;;;4982479;28;20872;-74
2023/10/16 03:08:20;;;;;;;10.10;9.40;;;2.00;99.90;;;;;;4963307;28;20550;-75
2023/10/16 03:10:46;;;;;;;9.80;9.00;;;2.00;99.90;;;;;;4962111;28;20441;-75
2023/10/16 03:13:15;;;;;;;11.20;10.37;;;1.90;99.90;;;;;;4973854;28;20490;-76
2023/10/16 03:15:46;;;;;;;11.30;10.50;;;1.90;99.90;;;;;;4964145;28;20446;-75
2023/10/16 03:18:22;;;;;;;10.60;9.80;;;1.90;99.90;;;;;;4960462;28;20895;-73
2023/10/16 03:21:00;;;;;;;10.47;9.77;;;1.90;99.90;;;;;;4964304;28;20505;-74
2023/10/16 03:23:30;;;;;;;10.50;9.80;;;1.90;99.90;;;;;;4958910;28;20537;-76
2023/10/16 03:25:59;;;;;;;10.13;9.43;;;1.90;99.90;;;;;;4959446;28;20444;-79
2023/10/16 03:28:26;;;;;;;10.40;9.70;;;1.80;99.90;;;;;;4964627;28;20984;-75
2023/10/16 03:30:53;;;;;;;9.83;9.20;;;1.70;99.90;;;;;;4961232;28;20777;-74
2023/10/16 03:33:23;;;;;;;10.40;9.70;;;1.70;99.90;;;;;;4955703;28;20855;-74
2023/10/16 03:35:50;;;;;;;11.17;10.30;;;1.70;99.90;;;;;;4960687;28;20948;-74
2023/10/16 03:38:26;;;;;;;10.77;10.00;;;1.60;99.90;;;;;;4970189;28;20469;-74
2023/10/16 03:40:55;;;;;;;10.50;9.70;;;1.60;99.90;;;;;;4954127;28;20475;-71
2023/10/16 03:43:23;;;;;;;10.90;10.00;;;1.50;99.90;;;;;;4959777;28;20441;-72
2023/10/16 03:45:50;;;;;;;11.33;10.33;;;1.60;99.90;;;;;;4960433;28;20540;-72
2023/10/16 03:48:19;;;;;;;10.77;9.97;;;1.60;99.90;;;;;;4958581;28;20505;-72
2023/10/16 03:50:47;;;;;;;10.70;9.90;;;1.60;99.90;;;;;;4968816;28;20469;-72
2023/10/16 03:53:14;;;;;;;11.37;10.43;;;1.70;99.90;;;;;;4957427;28;20442;-72
2023/10/16 03:55:46;;;;;;;11.93;11.00;;;1.70;99.90;;;;;;4958100;28;20505;-72
2023/10/16 03:58:13;;;;;;;11.23;10.43;;;1.70;99.90;;;;;;4955457;28;20476;-71
2023/10/16 04:00:57;;;;;;;11.03;10.13;;;1.60;99.90;;;;;;4957745;28;20481;-72
2023/10/16 04:03:26;;;;;;;10.80;9.90;;;1.60;99.90;;;;;;4958205;28;20992;-72
2023/10/16 04:05:55;;;;;;;9.30;8.50;;;1.60;99.90;;;;;;4959543;28;20446;-72
2023/10/16 04:08:23;;;;;;;9.50;8.80;;;1.50;99.90;;;;;;4962304;28;20818;-72
2023/10/16 04:10:53;;;;;;;9.13;8.53;;;1.50;99.90;;;;;;4962287;28;20531;-73
2023/10/16 04:13:25;;;;;;;9.30;8.60;;;1.50;99.90;;;;;;4958904;28;20983;-72
2023/10/16 04:16:13;;;;;;;9.30;8.60;;;1.50;99.90;;;;;;4960044;28;20439;-72
2023/10/16 04:18:40;;;;;;;11.03;10.23;;;1.50;99.90;;;;;;4959320;28;20471;-72
2023/10/16 04:23:55;;;;;;;10.40;9.60;;;1.60;99.90;;;;;;4957205;28;20444;-72
2023/10/16 04:26:56;;;;;;;10.60;9.80;;;1.50;99.90;;;;;;4962608;28;20436;-72
2023/10/16 04:29:28;;;;;;;11.37;10.47;;;1.50;99.90;;;;;;4956055;28;20480;-72
2023/10/16 04:31:58;;;;;;;10.57;9.87;;;1.40;99.90;;;;;;4957947;28;20436;-72
2023/10/16 04:34:31;;;;;;;10.40;9.60;;;1.40;99.90;;;;;;4961737;28;20860;-72
2023/10/16 04:43:07;;;;;;;10.80;10.10;;;1.40;99.90;;;;;;4959404;28;20804;-72
2023/10/16 04:45:58;;;;;;;11.43;10.63;;;1.40;99.90;;;;;;4959720;28;20483;-72
2023/10/16 04:48:47;;;;;;;11.43;10.53;;;1.40;99.90;;;;;;4958205;28;20473;-72
2023/10/16 04:51:19;;;;;;;12.60;11.60;;;1.40;99.90;;;;;;4967352;28;20482;-72
2023/10/16 04:53:58;;;;;;;12.03;11.13;;;1.40;99.90;;;;;;4968700;28;20443;-72
2023/10/16 04:59:36;;;;;;;12.47;11.57;;;1.30;99.90;;;;;;4955262;28;20468;-72
2023/10/16 05:02:16;;;;;;;12.57;11.60;;;1.40;99.90;;;;;;4967467;28;20454;-72
2023/10/16 05:07:57;;;;;;;13.07;11.93;;;1.40;99.90;;;;;;4900591;29;20451;-72
2023/10/16 05:10:51;;;;;;;11.40;10.70;;;1.40;99.90;;;;;;4894348;29;20479;-72
2023/10/16 05:13:24;;;;;;;11.10;10.40;;;1.40;99.90;;;;;;4943351;28;20445;-72
2023/10/16 05:18:48;;;;;;;10.87;10.07;;;1.30;99.90;;;;;;4958564;28;20478;-72
2023/10/16 06:16:23;;;;;;;12.07;11.07;;;1.60;99.90;;;;;;4976397;28;20794;-75
2023/10/16 06:18:50;;;;;;;11.80;10.90;;;1.60;99.90;;;;;;4980473;28;20478;-76
2023/10/16 06:21:18;;;;;;;11.83;10.87;;;1.60;99.90;;;;;;4972503;28;20458;-75
2023/10/16 06:23:48;;;;;;;11.47;10.57;;;1.70;99.90;;;;;;4966250;28;20969;-76
2023/10/16 06:26:15;;;;;;;11.13;10.33;;;1.70;99.90;;;;;;4966639;28;20806;-75
2023/10/16 06:28:48;;;;;;;12.13;11.07;;;1.80;99.90;;;;;;4962869;28;20483;-75
2023/10/16 06:31:22;;;;;;;11.37;10.47;;;1.90;99.90;;;;;;4955185;28;20495;-76
2023/10/16 06:33:54;;;;;;;12.27;11.30;;;2.00;99.90;;;;;;4955783;28;20982;-76
2023/10/16 06:36:23;;;;;;;13.00;11.73;;;2.20;99.90;;;;;;4959872;28;20541;-76
2023/10/16 06:38:51;;;;;;;11.90;10.90;;;2.40;99.90;;;;;;4960913;28;20474;-75
2023/10/16 06:41:22;;;;;;;11.13;10.40;;;2.50;99.90;;;;;;4963047;28;20531;-75
2023/10/16 06:43:49;;;;;;;11.47;10.67;;;2.60;99.90;;;;;;4960909;28;20451;-76
2023/10/16 06:46:22;;;;;;;12.13;11.13;;;2.70;99.90;;;;;;4958902;28;20437;-76
2023/10/16 06:48:50;;;;;;;11.47;10.67;;;2.70;99.90;;;;;;4958516;28;20457;-75
2023/10/16 06:51:17;;;;;;;11.43;10.43;;;2.80;99.90;;;;;;4959200;28;20473;-75
2023/10/16 06:53:44;;;;;;;10.70;9.90;;;2.90;99.90;;;;;;4960611;28;20191;-76
2023/10/16 06:56:18;;;;;;;10.67;9.97;;;2.90;99.90;;;;;;4962151;28;20532;-76
2023/10/16 06:58:45;;;;;;;10.50;9.80;;;2.90;99.90;;;;;;4962433;28;20893;-76
2023/10/16 07:01:19;;;;;;;11.20;10.40;;;2.90;99.90;;;;;;4963314;28;20493;-75
2023/10/16 07:03:47;;;;;;;11.20;10.40;;;2.90;99.90;;;;;;4959202;28;20478;-76
2023/10/16 07:06:16;;;;;;;11.60;10.60;;;3.00;99.90;;;;;;4959010;28;20449;-75
2023/10/16 07:08:42;;;;;;;10.70;10.00;;;3.10;99.90;;;;;;4964688;28;20218;-76
2023/10/16 07:11:13;;;;;;;10.40;9.70;;;3.00;99.90;;;;;;4964901;28;20222;-75
2023/10/16 07:13:40;;;;;;;10.40;9.70;;;3.00;99.90;;;;;;4960461;28;20202;-75
2023/10/16 07:16:09;;;;;;;10.00;9.30;;;3.00;99.90;;;;;;4962866;28;20206;-75
2023/10/16 07:18:42;;;;;;;9.80;9.20;;;3.10;99.90;;;;;;4993570;23;20279;-75
2023/10/16 07:21:10;;;;;;;10.60;9.90;;;3.20;99.90;;;;;;4979819;28;20202;-75
2023/10/16 07:23:39;;;;;;;10.83;10.03;;;3.20;99.90;;;;;;4978750;28;20245;-75
2023/10/16 07:26:08;;;;;;;10.83;10.13;;;3.20;99.90;;;;;;4989062;28;20280;-75
2023/10/16 07:28:35;;;;;;;10.50;9.80;;;3.40;99.90;;;;;;4972288;28;20229;-75
2023/10/16 07:31:03;;;;;;;11.10;10.30;;;3.60;99.90;;;;;;4969902;28;20281;-75
2023/10/16 07:33:30;;;;;;;10.57;9.87;;;4.00;99.90;;;;;;4971665;28;20245;-75
2023/10/16 07:35:59;;;;;;;10.80;10.07;;;4.30;99.90;;;;;;4968834;28;20645;-75
2023/10/16 07:38:26;;;;;;;10.33;9.63;;;4.60;99.90;;;;;;4964581;28;20229;-75
2023/10/16 07:40:56;;;;;;;11.23;10.33;;;4.80;99.90;;;;;;4966265;28;20281;-75
2023/10/16 07:43:26;;;;;;;11.30;10.50;;;5.10;99.90;;;;;;4968110;28;20202;-74
2023/10/16 07:46:06;;;;;;;12.10;11.20;;;5.40;99.90;;;;;;4969380;28;20301;-75
2023/10/16 07:48:33;;;;;;;11.30;10.50;;;5.60;99.90;;;;;;4965929;28;20221;-75
2023/10/16 07:51:01;;;;;;;10.90;10.10;;;5.80;99.90;;;;;;4965015;28;20648;-75
2023/10/16 07:53:28;;;;;;;11.30;10.33;;;6.10;99.90;;;;;;4981120;28;20194;-75
2023/10/16 07:55:56;;;;;;;10.37;9.67;;;6.40;99.90;;;;;;4970047;28;20302;-75
2023/10/16 07:58:24;;;;;;;10.07;9.37;;;6.60;99.90;;;;;;4971764;28;20774;-75
2023/10/16 08:01:17;;;;;;;9.23;8.63;;;6.80;99.90;;;;;;4967992;28;20215;-75
2023/10/16 08:03:46;;;;;;;8.73;8.13;;;7.30;99.90;;;;;;4963313;28;20201;-76
2023/10/16 08:06:17;;;;;;;9.73;8.93;;;7.30;99.90;;;;;;4969639;28;20205;-75
2023/10/16 08:08:48;;;;;;;8.17;7.63;;;7.50;99.90;;;;;;4974425;28;20271;-75
2023/10/16 08:11:18;;;;;;;8.40;7.80;;;7.60;99.90;;;;;;4965864;28;20256;-75
2023/10/16 08:13:47;;;;;;;9.20;8.50;;;7.60;99.90;;;;;;4970026;28;20645;-76
2023/10/16 08:16:17;;;;;;;9.20;8.50;;;7.60;99.90;;;;;;4968892;28;20221;-75
2023/10/16 08:18:49;;;;;;;9.40;8.70;;;7.60;99.90;;;;;;4966544;28;20225;-75
2023/10/16 08:21:25;;;;;;;8.93;8.23;;;7.60;99.90;;;;;;4977697;28;20299;-75
2023/10/16 08:23:54;;;;;;;9.00;8.20;;;7.70;99.90;;;;;;4969534;28;20707;-74
2023/10/16 08:26:41;;;;;;;15.67;12.50;;;8.00;99.90;;;;;;4969030;28;20202;-75
2023/10/16 08:29:12;;;;;;;18.10;10.77;;;8.30;99.90;;;;;;4967145;28;20690;-75
2023/10/16 08:31:42;;;;;;;7.03;5.00;;;8.70;99.90;;;;;;4968809;28;20218;-74
2023/10/16 08:34:09;;;;;;;11.70;8.70;;;8.90;99.90;;;;;;4969805;28;20582;-76
2023/10/16 08:36:36;;;;;;;9.70;7.67;;;9.00;99.90;;;;;;4965792;28;20189;-77
2023/10/16 08:39:09;;;;;;;7.10;6.40;;;9.00;99.90;;;;;;4968503;28;20653;-76
2023/10/16 08:41:45;;;;;;;9.03;8.23;;;9.30;99.90;;;;;;4967011;28;20198;-76
2023/10/16 08:44:17;;;;;;;9.00;8.10;;;9.50;99.90;;;;;;4965806;28;20208;-76
2023/10/16 08:47:11;;;;;;;7.73;7.13;;;9.90;99.90;;;;;;4966419;28;20264;-76
2023/10/16 08:49:39;;;;;;;7.67;6.80;;;10.20;99.90;;;;;;4978013;28;20233;-76
2023/10/16 08:52:11;;;;;;;5.50;4.97;;;10.40;99.90;;;;;;4980057;28;20280;-75
2023/10/16 08:55:00;;;;;;;6.50;5.90;;;10.20;99.90;;;;;;4979084;28;20760;-75
2023/10/16 08:57:29;;;;;;;8.67;7.77;;;10.20;99.90;;;;;;4969308;28;20213;-75
2023/10/16 08:59:58;;;;;;;6.30;5.70;;;10.30;99.90;;;;;;4970247;28;20307;-75
2023/10/16 09:02:27;;;;;;;6.50;4.90;;;10.50;99.90;;;;;;4973915;28;21720;-75
2023/10/16 09:04:56;;;;;;;8.47;5.23;;;10.60;99.90;;;;;;4969306;28;20231;-75
2023/10/16 09:07:25;;;;;;;5.50;4.70;;;10.50;99.90;;;;;;4976921;28;20575;-75
2023/10/16 09:09:55;;;;;;;6.37;5.60;;;10.50;99.90;;;;;;4976158;28;20235;-75
2023/10/16 09:12:26;;;;;;;7.00;5.87;;;10.60;99.90;;;;;;4979665;28;20256;-75
2023/10/16 09:15:05;;;;;;;6.87;5.57;;;10.80;99.90;;;;;;4987530;28;20224;-76
2023/10/16 09:17:33;;;;;;;7.90;7.20;;;10.90;99.90;;;;;;4973247;28;20210;-75
2023/10/16 09:20:12;;;;;;;9.27;7.50;;;10.60;99.90;;;;;;4975706;28;20236;-76
2023/10/16 09:22:40;;;;;;;7.37;6.70;;;10.40;99.90;;;;;;4975776;28;20205;-75
2023/10/16 09:25:09;;;;;;;7.63;6.93;;;10.40;99.90;;;;;;4968124;28;20208;-75
2023/10/16 09:27:36;;;;;;;6.70;6.00;;;10.30;99.90;;;;;;4972056;28;20204;-75
2023/10/16 09:30:14;;;;;;;6.17;5.67;;;10.20;99.90;;;;;;4970232;28;20251;-75
2023/10/16 09:32:42;;;;;;;5.63;5.03;;;10.20;99.90;;;;;;4969873;28;20233;-75
2023/10/16 09:35:12;;;;;;;5.43;4.83;;;10.40;99.90;;;;;;4974028;28;20203;-75
2023/10/16 09:37:39;;;;;;;4.57;3.73;;;10.60;99.90;;;;;;4972040;28;20620;-75
2023/10/16 09:40:19;;;;;;;6.40;4.33;;;10.60;99.90;;;;;;4970052;28;20228;-75
2023/10/16 09:42:55;;;;;;;5.93;4.17;;;10.40;99.90;;;;;;4969539;28;20200;-75
2023/10/16 09:45:24;;;;;;;5.47;4.37;;;10.30;99.90;;;;;;4966852;28;20657;-75
2023/10/16 09:47:51;;;;;;;5.37;4.03;;;10.20;99.90;;;;;;4972578;28;20195;-75
2023/10/16 09:50:19;;;;;;;6.33;4.00;;;10.20;99.90;;;;;;4970967;28;20621;-75
2023/10/16 09:52:47;;;;;;;8.67;6.70;;;10.30;99.90;;;;;;4970332;28;20314;-78
2023/10/16 09:55:18;;;;;;;7.67;5.30;;;10.30;99.90;;;;;;4979082;28;20203;-76
2023/10/16 09:57:49;;;;;;;7.17;6.57;;;10.30;99.90;;;;;;4974020;28;20212;-76
2023/10/16 10:00:28;;;;;;;9.20;8.50;;;10.10;99.90;;;;;;4973830;28;20314;-75
2023/10/16 10:03:02;;;;;;;9.20;8.43;;;10.10;99.90;;;;;;4974160;28;20257;-75
2023/10/16 10:05:34;;;;;;;9.20;8.50;;;9.90;99.90;;;;;;4968516;28;20664;-75
2023/10/16 10:08:15;;;;;;;8.80;8.10;;;9.90;99.90;;;;;;4967326;28;20212;-76
2023/10/16 10:13:34;;;;;;;8.50;7.90;;;9.90;99.90;;;;;;4970987;28;20281;-76
2023/10/16 10:16:10;;;;;;;8.80;8.10;;;10.00;99.90;;;;;;4968653;28;20302;-77
2023/10/16 10:18:46;;;;;;;15.13;7.60;;;9.90;99.90;;;;;;4969444;28;20280;-76
2023/10/16 10:21:27;;;;;;;7.33;6.63;;;9.80;99.90;;;;;;4972119;28;20198;-76
2023/10/16 10:24:00;;;;;;;8.03;6.80;;;9.90;99.90;;;;;;4971426;28;20202;-76
2023/10/16 10:26:27;;;;;;;7.83;7.10;;;9.90;99.90;;;;;;4968525;28;20212;-76
2023/10/16 10:29:09;;;;;;;7.63;7.00;;;9.90;99.90;;;;;;4968120;28;20223;-76
2023/10/16 10:31:37;;;;;;;7.13;6.50;;;9.90;99.90;;;;;;4967923;28;20748;-76
2023/10/16 10:34:23;;;;;;;8.60;7.90;;;9.90;99.90;;;;;;4974637;28;20210;-76
2023/10/16 10:36:50;;;;;;;10.83;9.93;;;9.90;99.90;;;;;;4971636;28;20285;-76
2023/10/16 10:39:44;;;;;;;11.20;10.20;;;9.90;99.90;;;;;;4970348;28;20215;-76
2023/10/16 10:42:16;;;;;;;9.87;9.17;;;9.90;99.90;;;;;;4968745;28;20206;-76
2023/10/16 10:44:53;;;;;;;8.00;7.30;;;9.90;99.90;;;;;;4970294;28;20216;-76
2023/10/16 10:47:21;;;;;;;9.80;9.10;;;10.00;99.90;;;;;;4980441;28;20602;-77
2023/10/16 10:49:51;;;;;;;9.07;8.27;;;10.00;99.90;;;;;;4968894;28;20246;-77
2023/10/16 10:52:19;;;;;;;9.87;9.17;;;10.00;99.90;;;;;;4975276;28;20218;-80
2023/10/16 10:54:49;;;;;;;9.67;8.90;;;10.10;99.90;;;;;;4971122;28;20298;-77
2023/10/16 10:57:18;;;;;;;9.53;8.80;;;10.10;99.90;;;;;;4971237;28;20261;-77
2023/10/16 10:59:47;;;;;;;8.90;8.10;;;10.20;99.90;;;;;;4973452;28;20236;-77
2023/10/16 11:02:23;;;;;;;8.73;8.07;;;10.30;99.90;;;;;;4974838;28;20199;-77
2023/10/16 11:05:08;;;;;;;9.90;9.20;;;10.30;99.90;;;;;;4968395;28;20384;-77
2023/10/16 11:07:45;;;;;;;8.37;7.67;;;10.30;99.90;;;;;;4965450;28;20658;-76
2023/10/16 11:10:13;;;;;;;10.47;9.67;;;10.30;99.90;;;;;;4974564;28;20250;-76
2023/10/16 11:12:42;;;;;;;5.20;3.90;;;10.20;99.90;;;;;;4964823;28;20221;-76
2023/10/16 11:15:11;;;;;;;10.30;9.23;;;10.20;99.90;;;;;;4971375;28;20212;-76
2023/10/16 11:17:38;;;;;;;7.30;6.60;;;10.30;99.90;;;;;;4969782;28;20198;-76
2023/10/16 11:20:27;;;;;;;9.50;8.63;;;10.40;99.90;;;;;;4973983;28;20237;-76
2023/10/16 11:22:56;;;;;;;8.93;8.20;;;10.50;99.90;;;;;;4977336;28;20285;-78
2023/10/16 11:25:28;;;;;;;6.73;3.53;;;10.50;99.90;;;;;;4968575;28;20202;-76
2023/10/16 11:27:57;;;;;;;4.70;3.80;;;10.60;99.90;;;;;;4979774;28;20206;-76
2023/10/16 11:30:26;;;;;;;5.00;4.00;;;10.70;99.90;;;;;;4975967;28;20571;-76
2023/10/16 11:32:55;;;;;;;4.63;3.57;;;10.70;99.90;;;;;;4966944;28;20230;-76
2023/10/16 11:35:26;;;;;;;3.83;3.43;;;10.70;99.90;;;;;;4967710;28;20199;-76
2023/10/16 11:37:59;;;;;;;6.97;4.90;;;10.80;99.90;;;;;;4972551;28;20198;-76
2023/10/16 11:40:39;;;;;;;6.77;5.50;;;10.90;99.90;;;;;;4971455;28;20238;-76
2023/10/16 11:43:11;;;;;;;5.60;4.77;;;10.90;99.90;;;;;;4966476;28;20192;-76
2023/10/16 11:45:39;;;;;;;4.87;4.40;;;11.00;99.90;;;;;;4965715;28;20207;-76
2023/10/16 11:48:21;;;;;;;5.67;4.10;;;10.90;99.90;;;;;;4977908;28;20209;-76
2023/10/16 11:50:52;;;;;;;4.50;4.10;;;11.00;99.90;;;;;;4968259;28;20203;-76
2023/10/16 11:53:23;;;;;;;7.23;5.20;;;11.10;99.90;;;;;;4966617;28;20273;-76
2023/10/16 11:55:50;;;;;;;4.43;3.80;;;11.10;99.90;;;;;;4966916;28;20284;-76
2023/10/16 11:58:17;;;;;;;4.73;4.23;;;11.10;99.90;;;;;;4973098;28;20190;-75
2023/10/16 12:00:53;;;;;;;6.60;6.00;;;11.20;99.90;;;;;;4970203;28;20673;-76
2023/10/16 12:03:23;;;;;;;6.43;5.57;;;11.30;99.90;;;;;;4968873;28;20207;-76
2023/10/16 12:05:52;;;;;;;5.83;5.33;;;11.30;99.90;;;;;;4971129;28;20191;-76
2023/10/16 12:08:21;;;;;;;5.23;3.90;;;11.30;99.90;;;;;;4971386;28;20679;-75
2023/10/16 12:10:50;;;;;;;5.90;3.50;;;11.30;99.90;;;;;;4978567;28;20248;-76
2023/10/16 12:13:17;;;;;;;5.83;5.33;;;11.40;99.90;;;;;;4982134;28;20312;-76
2023/10/16 12:15:46;;;;;;;4.23;3.00;;;11.50;99.90;;;;;;4968274;28;20226;-76
2023/10/16 12:18:14;;;;;;;4.43;3.90;;;11.50;99.90;;;;;;4969067;28;20245;-76
2023/10/16 12:20:41;;;;;;;4.90;4.20;;;11.50;99.90;;;;;;4978582;28;20228;-76
2023/10/16 12:23:09;;;;;;;4.10;3.80;;;11.50;99.90;;;;;;4973984;28;20195;-76
2023/10/16 12:25:36;;;;;;;3.27;3.03;;;11.50;99.90;;;;;;4978849;28;20200;-76
2023/10/16 12:28:07;;;;;;;3.53;2.77;;;11.50;99.90;;;;;;4976407;28;20202;-76
2023/10/16 12:30:36;;;;;;;3.50;2.70;;;11.60;99.90;;;;;;4973017;28;20199;-76
2023/10/16 12:33:05;;;;;;;3.80;2.57;;;11.60;99.90;;;;;;4968887;28;20219;-76
2023/10/16 12:35:34;;;;;;;5.10;4.60;;;11.70;99.90;;;;;;4976405;28;20364;-76
2023/10/16 12:38:04;;;;;;;5.27;4.77;;;11.70;99.90;;;;;;4967516;28;20202;-76
2023/10/16 12:40:37;;;;;;;6.00;5.60;;;11.80;99.90;;;;;;4974994;28;20194;-76
2023/10/16 12:43:05;;;;;;;5.50;5.00;;;11.80;99.90;;;;;;4967842;28;20215;-76
2023/10/16 12:45:33;;;;;;;5.47;5.07;;;11.90;99.90;;;;;;4972531;28;20209;-76
2023/10/16 12:48:00;;;;;;;4.30;4.00;;;12.00;99.90;;;;;;4968496;28;20229;-76
2023/10/16 12:50:29;;;;;;;4.40;4.00;;;12.00;99.90;;;;;;4970372;28;20209;-76
2023/10/16 12:52:57;;;;;;;5.50;5.00;;;12.00;99.90;;;;;;4967327;28;20223;-76
2023/10/16 12:55:24;;;;;;;6.83;6.43;;;12.00;99.90;;;;;;4965652;28;20209;-76
2023/10/16 12:57:53;;;;;;;7.40;6.87;;;12.00;99.90;;;;;;4968950;28;20203;-76
2023/10/16 13:00:22;;;;;;;5.53;5.13;;;12.00;99.90;;;;;;4967093;28;20211;-76
2023/10/16 13:02:50;;;;;;;4.10;3.80;;;12.00;99.90;;;;;;4967519;28;20192;-76
2023/10/16 13:05:18;;;;;;;6.90;6.50;;;12.10;99.90;;;;;;4971728;28;20203;-76
2023/10/16 13:07:47;;;;;;;5.07;4.67;;;12.10;99.90;;;;;;4968232;28;20691;-76
2023/10/16 13:10:15;;;;;;;4.50;4.20;;;12.10;99.90;;;;;;4963729;28;20220;-76
2023/10/16 13:12:42;;;;;;;4.30;4.00;;;12.10;99.90;;;;;;4972461;28;20274;-76
2023/10/16 13:15:14;;;;;;;3.93;3.73;;;12.10;99.90;;;;;;4975066;28;20195;-76
2023/10/16 13:17:41;;;;;;;4.37;4.07;;;12.10;99.90;;;;;;4980023;28;20208;-76
2023/10/16 13:20:16;;;;;;;3.60;3.40;;;12.10;99.90;;;;;;5005067;23;20318;-76
2023/10/16 13:22:44;;;;;;;4.10;3.80;;;12.10;99.90;;;;;;4990452;28;20199;-76
2023/10/16 13:25:12;;;;;;;4.80;4.50;;;12.10;99.90;;;;;;4980286;28;20656;-76
2023/10/16 13:27:38;;;;;;;6.27;5.87;;;12.10;99.90;;;;;;4976449;28;20200;-76
2023/10/16 13:30:11;;;;;;;4.73;4.17;;;12.10;99.90;;;;;;4969084;28;20256;-76
2023/10/16 13:32:40;;;;;;;4.33;4.03;;;12.20;99.90;;;;;;4972109;28;20219;-76
2023/10/16 13:35:12;;;;;;;4.20;3.90;;;12.30;99.90;;;;;;4973681;28;20560;-76
2023/10/16 13:37:42;;;;;;;3.90;3.70;;;12.20;99.90;;;;;;4971834;28;20778;-76
2023/10/16 13:40:20;;;;;;;4.87;4.47;;;12.30;99.90;;;;;;4971859;28;20588;-76
2023/10/16 13:42:48;;;;;;;3.50;3.30;;;12.40;99.90;;;;;;4971146;28;20195;-76
2023/10/16 13:45:16;;;;;;;4.30;3.90;;;12.40;99.90;;;;;;4971326;28;20280;-76
2023/10/16 13:47:44;;;;;;;3.93;3.63;;;12.40;99.90;;;;;;4969453;28;20208;-76
2023/10/16 13:50:13;;;;;;;3.57;3.27;;;12.40;99.90;;;;;;4969047;28;20240;-76
2023/10/16 13:52:43;;;;;;;6.97;6.47;;;12.40;99.90;;;;;;4979801;28;20232;-76
2023/10/16 13:55:13;;;;;;;7.07;6.57;;;12.40;99.90;;;;;;4971294;28;20279;-76
2023/10/16 13:57:42;;;;;;;6.87;6.47;;;12.40;99.90;;;;;;4975937;28;20213;-76
2023/10/16 14:00:18;;;;;;;7.17;6.77;;;12.40;99.90;;;;;;4970278;28;20758;-76
2023/10/16 14:02:48;;;;;;;7.33;6.83;;;12.40;99.90;;;;;;4970180;28;20252;-76
2023/10/16 14:05:15;;;;;;;7.23;6.63;;;12.30;99.90;;;;;;4971438;28;20267;-79
2023/10/16 14:07:43;;;;;;;6.80;6.40;;;12.40;99.90;;;;;;4970551;28;20216;-77
2023/10/16 14:10:13;;;;;;;6.83;6.23;;;12.40;99.90;;;;;;4973251;28;20222;-77
2023/10/16 14:12:41;;;;;;;6.67;6.27;;;12.40;99.90;;;;;;4972933;28;20212;-78
2023/10/16 14:15:15;;;;;;;6.60;6.20;;;12.30;99.90;;;;;;4969428;28;20205;-77
2023/10/16 14:17:43;;;;;;;6.93;6.43;;;12.30;99.90;;;;;;4974257;28;20641;-78
2023/10/16 14:20:29;;;;;;;6.90;6.50;;;12.30;99.90;;;;;;4980411;28;20748;-82